sensor_id;sensor_type;location;lat;lon;timestamp;temperature;humidity
2967;DHT22;1493;51.496;7.210;2023-04-29T00:01:36;12.80;99.90
2967;DHT22;1493;51.496;7.210;2023-04-29T00:04:03;12.90;99.90
2967;DHT22;1493;51.496;7.210;2023-04-29T00:06:30;12.80;99.90
2967;DHT22;1493;51.496;7.210;2023-04-29T00:08:57;12.90;99.90
2967;DHT22;1493;51.496;7.210;2023-04-29T00:11:24;12.90;99.90
2967;DHT22;1493;51.496;7.210;2023-04-29T00:13:52;12.90;99.90
2967;DHT22;1493;51.496;7.210;2023-04-29T00:16:18;12.90;99.90
2967;DHT22;1493;51.496;7.210;2023-04-29T00:18:45;12.90;99.90
2967;DHT22;1493;51.496;7.210;2023-04-29T00:21:12;12.80;99.90
2967;DHT22;1493;51.496;7.210;2023-04-29T00:23:39;12.70;99.90
2967;DHT22;1493;51.496;7.210;2023-04-29T00:26:06;12.70;99.90
2967;DHT22;1493;51.496;7.210;2023-04-29T00:28:32;12.70;99.90
2967;DHT22;1493;51.496;7.210;2023-04-29T00:31:01;12.60;99.90
2967;DHT22;1493;51.496;7.210;2023-04-29T00:33:27;12.60;99.90
2967;DHT22;1493;51.496;7.210;2023-04-29T00:35:55;12.50;99.90
2967;DHT22;1493;51.496;7.210;2023-04-29T00:38:21;12.50;99.90
2967;DHT22;1493;51.496;7.210;2023-04-29T00:40:48;12.60;99.90
2967;DHT22;1493;51.496;7.210;2023-04-29T00:43:15;12.60;99.90
2967;DHT22;1493;51.496;7.210;2023-04-29T00:45:42;12.60;99.90
2967;DHT22;1493;51.496;7.210;2023-04-29T00:48:11;12.70;99.90
2967;DHT22;1493;51.496;7.210;2023-04-29T00:50:39;12.70;99.90
2967;DHT22;1493;51.496;7.210;2023-04-29T00:53:06;12.60;99.90
2967;DHT22;1493;51.496;7.210;2023-04-29T00:55:34;12.50;99.90
2967;DHT22;1493;51.496;7.210;2023-04-29T00:58:02;12.50;99.90
2967;DHT22;1493;51.496;7.210;2023-04-29T01:00:29;12.50;99.90
2967;DHT22;1493;51.496;7.210;2023-04-29T01:02:56;12.50;99.90
2967;DHT22;1493;51.496;7.210;2023-04-29T01:05:25;12.50;99.90
2967;DHT22;1493;51.496;7.210;2023-04-29T01:08:02;12.40;99.90
2967;DHT22;1493;51.496;7.210;2023-04-29T01:10:38;12.40;99.90
2967;DHT22;1493;51.496;7.210;2023-04-29T01:13:13;12.30;99.90
2967;DHT22;1493;51.496;7.210;2023-04-29T01:15:47;12.30;99.90
2967;DHT22;1493;51.496;7.210;2023-04-29T01:18:19;12.30;99.90
2967;DHT22;1493;51.496;7.210;2023-04-29T01:20:50;12.30;99.90
2967;DHT22;1493;51.496;7.210;2023-04-29T01:23:17;12.40;99.90
2967;DHT22;1493;51.496;7.210;2023-04-29T01:25:45;12.40;99.90
2967;DHT22;1493;51.496;7.210;2023-04-29T01:28:22;12.40;99.90
2967;DHT22;1493;51.496;7.210;2023-04-29T01:30:58;12.40;99.90
2967;DHT22;1493;51.496;7.210;2023-04-29T01:33:32;12.30;99.90
2967;DHT22;1493;51.496;7.210;2023-04-29T01:36:11;12.20;99.90
2967;DHT22;1493;51.496;7.210;2023-04-29T01:38:46;12.10;99.90
2967;DHT22;1493;51.496;7.210;2023-04-29T01:41:20;12.10;99.90
2967;DHT22;1493;51.496;7.210;2023-04-29T01:43:50;12.10;99.90
2967;DHT22;1493;51.496;7.210;2023-04-29T01:46:17;12.00;99.90
2967;DHT22;1493;51.496;7.210;2023-04-29T01:48:44;11.90;99.90
2967;DHT22;1493;51.496;7.210;2023-04-29T01:51:12;11.90;99.90
2967;DHT22;1493;51.496;7.210;2023-04-29T01:53:39;11.90;99.90
2967;DHT22;1493;51.496;7.210;2023-04-29T01:56:06;11.80;99.90
2967;DHT22;1493;51.496;7.210;2023-04-29T01:58:34;11.80;99.90
2967;DHT22;1493;51.496;7.210;2023-04-29T02:01:01;11.70;99.90
2967;DHT22;1493;51.496;7.210;2023-04-29T02:03:28;11.40;99.90
2967;DHT22;1493;51.496;7.210;2023-04-29T02:05:55;11.60;99.90
2967;DHT22;1493;51.496;7.210;2023-04-29T02:08:22;11.60;99.90
2967;DHT22;1493;51.496;7.210;2023-04-29T02:10:52;11.50;99.90
2967;DHT22;1493;51.496;7.210;2023-04-29T02:13:19;11.50;99.90
2967;DHT22;1493;51.496;7.210;2023-04-29T02:15:48;11.30;99.90
2967;DHT22;1493;51.496;7.210;2023-04-29T02:18:15;11.20;99.90
2967;DHT22;1493;51.496;7.210;2023-04-29T02:20:42;11.20;99.90
2967;DHT22;1493;51.496;7.210;2023-04-29T02:23:09;11.20;99.90
2967;DHT22;1493;51.496;7.210;2023-04-29T02:25:36;11.30;99.90
2967;DHT22;1493;51.496;7.210;2023-04-29T02:28:03;11.20;99.90
2967;DHT22;1493;51.496;7.210;2023-04-29T02:30:30;11.30;99.90
2967;DHT22;1493;51.496;7.210;2023-04-29T02:32:58;11.30;99.90
2967;DHT22;1493;51.496;7.210;2023-04-29T02:35:24;11.30;99.90
2967;DHT22;1493;51.496;7.210;2023-04-29T02:37:51;11.30;99.90
2967;DHT22;1493;51.496;7.210;2023-04-29T02:40:18;11.30;99.90
2967;DHT22;1493;51.496;7.210;2023-04-29T02:42:45;11.40;99.90
2967;DHT22;1493;51.496;7.210;2023-04-29T02:45:12;11.40;99.90
2967;DHT22;1493;51.496;7.210;2023-04-29T02:47:39;11.40;99.90
2967;DHT22;1493;51.496;7.210;2023-04-29T02:50:07;11.30;99.90
2967;DHT22;1493;51.496;7.210;2023-04-29T02:52:34;11.30;99.90
2967;DHT22;1493;51.496;7.210;2023-04-29T02:55:01;11.40;99.90
2967;DHT22;1493;51.496;7.210;2023-04-29T02:57:28;11.40;99.90
2967;DHT22;1493;51.496;7.210;2023-04-29T02:59:56;11.40;99.90
2967;DHT22;1493;51.496;7.210;2023-04-29T03:02:23;11.50;99.90
2967;DHT22;1493;51.496;7.210;2023-04-29T03:04:50;11.30;99.90
2967;DHT22;1493;51.496;7.210;2023-04-29T03:07:19;11.30;99.90
2967;DHT22;1493;51.496;7.210;2023-04-29T03:09:46;11.20;99.90
2967;DHT22;1493;51.496;7.210;2023-04-29T03:12:12;11.30;99.90
2967;DHT22;1493;51.496;7.210;2023-04-29T03:14:41;11.20;99.90
2967;DHT22;1493;51.496;7.210;2023-04-29T03:17:08;11.20;99.90
2967;DHT22;1493;51.496;7.210;2023-04-29T03:19:35;11.30;99.90
2967;DHT22;1493;51.496;7.210;2023-04-29T03:22:02;11.20;99.90
2967;DHT22;1493;51.496;7.210;2023-04-29T03:24:30;11.30;99.90
2967;DHT22;1493;51.496;7.210;2023-04-29T03:26:57;11.10;99.90
2967;DHT22;1493;51.496;7.210;2023-04-29T03:29:24;11.10;99.90
2967;DHT22;1493;51.496;7.210;2023-04-29T03:31:52;11.20;99.90
2967;DHT22;1493;51.496;7.210;2023-04-29T03:34:18;11.10;99.90
2967;DHT22;1493;51.496;7.210;2023-04-29T03:36:45;11.20;99.90
2967;DHT22;1493;51.496;7.210;2023-04-29T03:39:12;11.10;99.90
2967;DHT22;1493;51.496;7.210;2023-04-29T03:41:40;11.10;99.90
2967;DHT22;1493;51.496;7.210;2023-04-29T03:44:07;10.40;99.90
2967;DHT22;1493;51.496;7.210;2023-04-29T03:46:34;11.00;99.90
2967;DHT22;1493;51.496;7.210;2023-04-29T03:49:01;11.10;99.90
2967;DHT22;1493;51.496;7.210;2023-04-29T03:51:28;11.10;99.90
2967;DHT22;1493;51.496;7.210;2023-04-29T03:53:55;11.10;99.90
2967;DHT22;1493;51.496;7.210;2023-04-29T03:56:22;11.00;99.90
2967;DHT22;1493;51.496;7.210;2023-04-29T03:58:51;11.00;99.90
2967;DHT22;1493;51.496;7.210;2023-04-29T04:01:18;11.00;99.90
2967;DHT22;1493;51.496;7.210;2023-04-29T04:03:45;10.90;99.90
2967;DHT22;1493;51.496;7.210;2023-04-29T04:06:12;10.90;99.90
2967;DHT22;1493;51.496;7.210;2023-04-29T04:08:39;11.60;99.90
2967;DHT22;1493;51.496;7.210;2023-04-29T04:11:06;10.90;99.90
2967;DHT22;1493;51.496;7.210;2023-04-29T04:13:34;10.90;99.90
2967;DHT22;1493;51.496;7.210;2023-04-29T04:16:02;11.00;99.90
2967;DHT22;1493;51.496;7.210;2023-04-29T04:18:29;10.90;99.90
2967;DHT22;1493;51.496;7.210;2023-04-29T04:20:56;11.20;99.90
2967;DHT22;1493;51.496;7.210;2023-04-29T04:23:22;10.90;99.90
2967;DHT22;1493;51.496;7.210;2023-04-29T04:25:49;11.00;99.90
2967;DHT22;1493;51.496;7.210;2023-04-29T04:28:17;10.90;99.90
2967;DHT22;1493;51.496;7.210;2023-04-29T04:30:45;11.00;99.90
2967;DHT22;1493;51.496;7.210;2023-04-29T04:33:13;10.90;99.90
2967;DHT22;1493;51.496;7.210;2023-04-29T04:35:41;10.90;99.90
2967;DHT22;1493;51.496;7.210;2023-04-29T04:38:08;11.00;99.90
2967;DHT22;1493;51.496;7.210;2023-04-29T04:40:35;11.00;99.90
2967;DHT22;1493;51.496;7.210;2023-04-29T04:43:02;11.00;99.90
2967;DHT22;1493;51.496;7.210;2023-04-29T04:45:29;11.00;99.90
2967;DHT22;1493;51.496;7.210;2023-04-29T04:47:56;11.00;99.90
2967;DHT22;1493;51.496;7.210;2023-04-29T04:50:26;11.90;99.90
2967;DHT22;1493;51.496;7.210;2023-04-29T04:52:53;11.50;99.90
2967;DHT22;1493;51.496;7.210;2023-04-29T04:55:20;11.10;99.90
2967;DHT22;1493;51.496;7.210;2023-04-29T04:57:47;11.10;99.90
2967;DHT22;1493;51.496;7.210;2023-04-29T05:00:14;11.10;99.90
2967;DHT22;1493;51.496;7.210;2023-04-29T05:02:41;11.10;99.90
2967;DHT22;1493;51.496;7.210;2023-04-29T05:05:08;11.20;99.90
2967;DHT22;1493;51.496;7.210;2023-04-29T05:07:36;11.20;99.90
2967;DHT22;1493;51.496;7.210;2023-04-29T05:10:04;11.20;99.90
2967;DHT22;1493;51.496;7.210;2023-04-29T05:12:31;11.10;99.90
2967;DHT22;1493;51.496;7.210;2023-04-29T05:14:59;11.20;99.90
2967;DHT22;1493;51.496;7.210;2023-04-29T05:17:26;11.20;99.90
2967;DHT22;1493;51.496;7.210;2023-04-29T05:19:53;11.20;99.90
2967;DHT22;1493;51.496;7.210;2023-04-29T05:22:20;11.20;99.90
2967;DHT22;1493;51.496;7.210;2023-04-29T05:24:48;11.30;99.90
2967;DHT22;1493;51.496;7.210;2023-04-29T05:27:17;11.20;99.90
2967;DHT22;1493;51.496;7.210;2023-04-29T05:29:44;11.20;99.90
2967;DHT22;1493;51.496;7.210;2023-04-29T05:32:11;11.20;99.90
2967;DHT22;1493;51.496;7.210;2023-04-29T05:34:38;11.40;99.90
2967;DHT22;1493;51.496;7.210;2023-04-29T05:37:05;11.20;99.90
2967;DHT22;1493;51.496;7.210;2023-04-29T05:39:32;11.30;99.90
2967;DHT22;1493;51.496;7.210;2023-04-29T05:42:00;11.40;99.90
2967;DHT22;1493;51.496;7.210;2023-04-29T05:44:27;11.40;99.90
2967;DHT22;1493;51.496;7.210;2023-04-29T05:46:54;11.50;99.90
2967;DHT22;1493;51.496;7.210;2023-04-29T05:49:21;11.50;99.90
2967;DHT22;1493;51.496;7.210;2023-04-29T05:51:48;11.50;99.90
2967;DHT22;1493;51.496;7.210;2023-04-29T05:54:15;11.60;99.90
2967;DHT22;1493;51.496;7.210;2023-04-29T05:56:42;11.60;99.90
2967;DHT22;1493;51.496;7.210;2023-04-29T05:59:10;11.60;99.90
2967;DHT22;1493;51.496;7.210;2023-04-29T06:01:37;11.60;99.90
2967;DHT22;1493;51.496;7.210;2023-04-29T06:04:04;11.50;99.90
2967;DHT22;1493;51.496;7.210;2023-04-29T06:06:32;11.60;99.90
2967;DHT22;1493;51.496;7.210;2023-04-29T06:08:59;11.60;99.90
2967;DHT22;1493;51.496;7.210;2023-04-29T06:11:27;11.60;99.90
2967;DHT22;1493;51.496;7.210;2023-04-29T06:13:54;11.60;99.90
2967;DHT22;1493;51.496;7.210;2023-04-29T06:16:23;11.40;99.90
2967;DHT22;1493;51.496;7.210;2023-04-29T06:18:53;11.80;99.90
2967;DHT22;1493;51.496;7.210;2023-04-29T06:21:25;12.30;99.90
2967;DHT22;1493;51.496;7.210;2023-04-29T06:23:56;11.80;99.90
2967;DHT22;1493;51.496;7.210;2023-04-29T06:26:33;12.50;99.90
2967;DHT22;1493;51.496;7.210;2023-04-29T06:29:11;11.70;99.90
2967;DHT22;1493;51.496;7.210;2023-04-29T06:31:47;11.90;99.90
2967;DHT22;1493;51.496;7.210;2023-04-29T06:34:15;11.90;99.90
2967;DHT22;1493;51.496;7.210;2023-04-29T06:36:44;12.30;99.90
2967;DHT22;1493;51.496;7.210;2023-04-29T06:39:12;12.00;99.90
2967;DHT22;1493;51.496;7.210;2023-04-29T06:41:43;12.10;99.90
2967;DHT22;1493;51.496;7.210;2023-04-29T06:44:15;11.90;99.90
2967;DHT22;1493;51.496;7.210;2023-04-29T06:46:48;12.40;99.90
2967;DHT22;1493;51.496;7.210;2023-04-29T06:49:18;12.70;99.90
2967;DHT22;1493;51.496;7.210;2023-04-29T06:51:46;12.00;99.90
2967;DHT22;1493;51.496;7.210;2023-04-29T06:54:18;12.00;99.90
2967;DHT22;1493;51.496;7.210;2023-04-29T06:57:00;11.90;99.90
2967;DHT22;1493;51.496;7.210;2023-04-29T06:59:28;11.10;99.90
2967;DHT22;1493;51.496;7.210;2023-04-29T07:01:57;12.70;99.90
2967;DHT22;1493;51.496;7.210;2023-04-29T07:04:30;11.70;99.90
2967;DHT22;1493;51.496;7.210;2023-04-29T07:06:57;11.60;99.90
2967;DHT22;1493;51.496;7.210;2023-04-29T07:09:29;11.60;99.90
2967;DHT22;1493;51.496;7.210;2023-04-29T07:11:56;11.50;99.90
2967;DHT22;1493;51.496;7.210;2023-04-29T07:14:23;11.70;99.90
2967;DHT22;1493;51.496;7.210;2023-04-29T07:16:52;11.40;99.90
2967;DHT22;1493;51.496;7.210;2023-04-29T07:19:21;12.00;99.90
2967;DHT22;1493;51.496;7.210;2023-04-29T07:21:48;11.40;99.90
2967;DHT22;1493;51.496;7.210;2023-04-29T07:24:15;11.40;99.90
2967;DHT22;1493;51.496;7.210;2023-04-29T07:26:42;11.30;99.90
2967;DHT22;1493;51.496;7.210;2023-04-29T07:29:10;12.60;99.90
2967;DHT22;1493;51.496;7.210;2023-04-29T07:31:37;11.30;99.90
2967;DHT22;1493;51.496;7.210;2023-04-29T07:34:04;11.30;99.90
2967;DHT22;1493;51.496;7.210;2023-04-29T07:36:32;11.40;99.90
2967;DHT22;1493;51.496;7.210;2023-04-29T07:39:00;11.50;99.90
2967;DHT22;1493;51.496;7.210;2023-04-29T07:41:26;11.50;99.90
2967;DHT22;1493;51.496;7.210;2023-04-29T07:43:53;12.20;99.90
2967;DHT22;1493;51.496;7.210;2023-04-29T07:46:20;11.60;99.90
2967;DHT22;1493;51.496;7.210;2023-04-29T07:48:47;11.60;99.90
2967;DHT22;1493;51.496;7.210;2023-04-29T07:51:15;11.50;99.90
2967;DHT22;1493;51.496;7.210;2023-04-29T07:53:43;11.50;99.90
2967;DHT22;1493;51.496;7.210;2023-04-29T07:56:10;11.60;99.90
2967;DHT22;1493;51.496;7.210;2023-04-29T07:58:37;11.50;99.90
2967;DHT22;1493;51.496;7.210;2023-04-29T08:01:05;11.50;99.90
2967;DHT22;1493;51.496;7.210;2023-04-29T08:03:36;11.30;99.90
2967;DHT22;1493;51.496;7.210;2023-04-29T08:06:04;11.30;99.90
2967;DHT22;1493;51.496;7.210;2023-04-29T08:08:31;11.50;99.90
2967;DHT22;1493;51.496;7.210;2023-04-29T08:11:00;11.30;99.90
2967;DHT22;1493;51.496;7.210;2023-04-29T08:13:30;12.50;99.90
2967;DHT22;1493;51.496;7.210;2023-04-29T08:15:59;11.50;99.90
2967;DHT22;1493;51.496;7.210;2023-04-29T08:18:27;11.50;99.90
2967;DHT22;1493;51.496;7.210;2023-04-29T08:20:57;11.30;99.90
2967;DHT22;1493;51.496;7.210;2023-04-29T08:23:23;12.90;99.90
2967;DHT22;1493;51.496;7.210;2023-04-29T08:25:51;12.00;99.90
2967;DHT22;1493;51.496;7.210;2023-04-29T08:28:21;10.90;99.90
2967;DHT22;1493;51.496;7.210;2023-04-29T08:30:50;11.30;99.90
2967;DHT22;1493;51.496;7.210;2023-04-29T08:33:17;11.40;99.90
2967;DHT22;1493;51.496;7.210;2023-04-29T08:35:44;11.40;99.90
2967;DHT22;1493;51.496;7.210;2023-04-29T08:38:13;12.70;99.90
2967;DHT22;1493;51.496;7.210;2023-04-29T08:40:42;11.80;99.90
2967;DHT22;1493;51.496;7.210;2023-04-29T08:43:10;12.10;99.90
2967;DHT22;1493;51.496;7.210;2023-04-29T08:45:42;11.60;99.90
2967;DHT22;1493;51.496;7.210;2023-04-29T08:48:12;11.60;99.90
2967;DHT22;1493;51.496;7.210;2023-04-29T08:51:12;11.50;99.90
2967;DHT22;1493;51.496;7.210;2023-04-29T08:56:49;11.40;99.90
2967;DHT22;1493;51.496;7.210;2023-04-29T08:59:44;11.40;99.90
2967;DHT22;1493;51.496;7.210;2023-04-29T09:06:19;10.40;99.90
2967;DHT22;1493;51.496;7.210;2023-04-29T09:08:47;11.90;99.90
2967;DHT22;1493;51.496;7.210;2023-04-29T09:11:14;11.80;99.90
2967;DHT22;1493;51.496;7.210;2023-04-29T09:13:41;11.80;99.90
2967;DHT22;1493;51.496;7.210;2023-04-29T09:16:10;12.30;99.90
2967;DHT22;1493;51.496;7.210;2023-04-29T09:18:49;12.10;99.90
2967;DHT22;1493;51.496;7.210;2023-04-29T09:21:18;11.90;99.90
2967;DHT22;1493;51.496;7.210;2023-04-29T09:23:46;11.90;99.90
2967;DHT22;1493;51.496;7.210;2023-04-29T09:26:13;11.90;99.90
2967;DHT22;1493;51.496;7.210;2023-04-29T09:28:40;12.00;99.90
2967;DHT22;1493;51.496;7.210;2023-04-29T09:31:09;12.00;99.90
2967;DHT22;1493;51.496;7.210;2023-04-29T09:33:52;12.10;99.90
2967;DHT22;1493;51.496;7.210;2023-04-29T09:36:39;12.20;99.90
2967;DHT22;1493;51.496;7.210;2023-04-29T09:39:07;12.30;99.90
2967;DHT22;1493;51.496;7.210;2023-04-29T09:41:38;12.50;99.90
2967;DHT22;1493;51.496;7.210;2023-04-29T09:44:06;12.70;99.90
2967;DHT22;1493;51.496;7.210;2023-04-29T09:46:33;12.80;99.90
2967;DHT22;1493;51.496;7.210;2023-04-29T09:49:02;12.80;99.90
2967;DHT22;1493;51.496;7.210;2023-04-29T09:51:30;12.90;99.90
2967;DHT22;1493;51.496;7.210;2023-04-29T09:53:59;13.10;99.90
2967;DHT22;1493;51.496;7.210;2023-04-29T09:56:27;13.50;99.90
2967;DHT22;1493;51.496;7.210;2023-04-29T09:58:55;13.10;92.30
2967;DHT22;1493;51.496;7.210;2023-04-29T10:01:24;13.00;99.90
2967;DHT22;1493;51.496;7.210;2023-04-29T10:03:54;13.10;99.90
2967;DHT22;1493;51.496;7.210;2023-04-29T10:06:24;13.30;99.90
2967;DHT22;1493;51.496;7.210;2023-04-29T10:08:51;13.50;99.90
2967;DHT22;1493;51.496;7.210;2023-04-29T10:11:18;13.50;99.90
2967;DHT22;1493;51.496;7.210;2023-04-29T10:13:47;13.70;32.20
2967;DHT22;1493;51.496;7.210;2023-04-29T10:16:25;14.00;30.00
2967;DHT22;1493;51.496;7.210;2023-04-29T10:18:54;14.30;7.20
2967;DHT22;1493;51.496;7.210;2023-04-29T10:21:26;14.50;1.00
2967;DHT22;1493;51.496;7.210;2023-04-29T10:23:56;14.60;1.00
2967;DHT22;1493;51.496;7.210;2023-04-29T10:26:26;15.70;1.00
2967;DHT22;1493;51.496;7.210;2023-04-29T10:28:55;15.70;1.00
2967;DHT22;1493;51.496;7.210;2023-04-29T10:31:25;15.60;1.00
2967;DHT22;1493;51.496;7.210;2023-04-29T10:33:55;15.70;1.00
2967;DHT22;1493;51.496;7.210;2023-04-29T10:36:24;15.80;99.90
2967;DHT22;1493;51.496;7.210;2023-04-29T10:38:54;16.80;99.90
2967;DHT22;1493;51.496;7.210;2023-04-29T10:41:25;16.00;99.90
2967;DHT22;1493;51.496;7.210;2023-04-29T10:43:53;16.10;99.90
2967;DHT22;1493;51.496;7.210;2023-04-29T10:46:21;16.00;99.90
2967;DHT22;1493;51.496;7.210;2023-04-29T10:48:54;16.00;57.90
2967;DHT22;1493;51.496;7.210;2023-04-29T10:51:30;15.30;99.90
2967;DHT22;1493;51.496;7.210;2023-04-29T10:53:59;15.60;1.00
2967;DHT22;1493;51.496;7.210;2023-04-29T10:56:41;16.10;99.90
2967;DHT22;1493;51.496;7.210;2023-04-29T10:59:13;16.60;99.90
2967;DHT22;1493;51.496;7.210;2023-04-29T11:01:43;16.80;1.00
2967;DHT22;1493;51.496;7.210;2023-04-29T11:04:10;17.00;99.90
2967;DHT22;1493;51.496;7.210;2023-04-29T11:06:40;16.70;1.00
2967;DHT22;1493;51.496;7.210;2023-04-29T11:09:10;16.80;99.90
2967;DHT22;1493;51.496;7.210;2023-04-29T11:11:56;17.10;1.00
2967;DHT22;1493;51.496;7.210;2023-04-29T11:14:25;17.20;99.90
2967;DHT22;1493;51.496;7.210;2023-04-29T11:16:55;17.20;99.90
2967;DHT22;1493;51.496;7.210;2023-04-29T11:19:24;17.80;99.90
2967;DHT22;1493;51.496;7.210;2023-04-29T11:22:08;17.80;1.00
2967;DHT22;1493;51.496;7.210;2023-04-29T11:24:36;17.70;99.90
2967;DHT22;1493;51.496;7.210;2023-04-29T11:27:14;18.00;99.90
2967;DHT22;1493;51.496;7.210;2023-04-29T11:29:42;18.00;99.90
2967;DHT22;1493;51.496;7.210;2023-04-29T11:32:10;18.10;99.90
2967;DHT22;1493;51.496;7.210;2023-04-29T11:34:36;18.20;99.90
2967;DHT22;1493;51.496;7.210;2023-04-29T11:37:05;18.00;99.90
2967;DHT22;1493;51.496;7.210;2023-04-29T11:39:33;18.40;99.90
2967;DHT22;1493;51.496;7.210;2023-04-29T11:42:04;18.00;1.00
2967;DHT22;1493;51.496;7.210;2023-04-29T11:44:33;18.00;1.00
2967;DHT22;1493;51.496;7.210;2023-04-29T11:47:03;18.20;1.00
2967;DHT22;1493;51.496;7.210;2023-04-29T11:49:30;17.80;1.00
2967;DHT22;1493;51.496;7.210;2023-04-29T11:51:58;17.70;1.00
2967;DHT22;1493;51.496;7.210;2023-04-29T11:54:26;17.90;1.00
2967;DHT22;1493;51.496;7.210;2023-04-29T11:56:53;18.50;24.80
2967;DHT22;1493;51.496;7.210;2023-04-29T11:59:21;18.70;1.00
2967;DHT22;1493;51.496;7.210;2023-04-29T12:01:48;19.40;1.00
2967;DHT22;1493;51.496;7.210;2023-04-29T12:04:15;19.90;1.00
2967;DHT22;1493;51.496;7.210;2023-04-29T12:06:42;20.50;1.00
2967;DHT22;1493;51.496;7.210;2023-04-29T12:09:09;21.10;1.00
2967;DHT22;1493;51.496;7.210;2023-04-29T12:11:38;22.20;1.00
2967;DHT22;1493;51.496;7.210;2023-04-29T12:14:05;24.00;1.00
2967;DHT22;1493;51.496;7.210;2023-04-29T12:16:33;25.20;1.00
2967;DHT22;1493;51.496;7.210;2023-04-29T12:19:00;25.30;1.00
2967;DHT22;1493;51.496;7.210;2023-04-29T12:21:27;26.60;1.00
2967;DHT22;1493;51.496;7.210;2023-04-29T12:23:58;25.20;1.00
2967;DHT22;1493;51.496;7.210;2023-04-29T12:26:26;24.50;1.00
2967;DHT22;1493;51.496;7.210;2023-04-29T12:28:58;22.80;99.90
2967;DHT22;1493;51.496;7.210;2023-04-29T12:31:31;21.70;99.90
2967;DHT22;1493;51.496;7.210;2023-04-29T12:33:59;20.70;99.90
2967;DHT22;1493;51.496;7.210;2023-04-29T12:36:27;20.50;99.90
2967;DHT22;1493;51.496;7.210;2023-04-29T12:38:54;19.90;99.90
2967;DHT22;1493;51.496;7.210;2023-04-29T12:41:35;19.20;99.90
2967;DHT22;1493;51.496;7.210;2023-04-29T12:44:04;18.50;99.90
2967;DHT22;1493;51.496;7.210;2023-04-29T12:46:33;17.80;99.90
2967;DHT22;1493;51.496;7.210;2023-04-29T12:49:02;17.50;1.00
2967;DHT22;1493;51.496;7.210;2023-04-29T12:51:29;17.20;1.00
2967;DHT22;1493;51.496;7.210;2023-04-29T12:53:56;17.00;1.00
2967;DHT22;1493;51.496;7.210;2023-04-29T12:56:23;16.90;1.00
2967;DHT22;1493;51.496;7.210;2023-04-29T12:58:50;17.00;1.00
2967;DHT22;1493;51.496;7.210;2023-04-29T13:01:19;17.30;1.00
2967;DHT22;1493;51.496;7.210;2023-04-29T13:03:46;17.50;1.00
2967;DHT22;1493;51.496;7.210;2023-04-29T13:06:14;17.40;1.00
2967;DHT22;1493;51.496;7.210;2023-04-29T13:08:40;17.80;1.00
2967;DHT22;1493;51.496;7.210;2023-04-29T13:11:10;18.20;1.00
2967;DHT22;1493;51.496;7.210;2023-04-29T13:13:38;18.40;1.00
2967;DHT22;1493;51.496;7.210;2023-04-29T13:16:05;18.50;1.00
2967;DHT22;1493;51.496;7.210;2023-04-29T13:18:33;18.70;1.00
2967;DHT22;1493;51.496;7.210;2023-04-29T13:21:01;18.60;1.00
2967;DHT22;1493;51.496;7.210;2023-04-29T13:23:28;18.60;1.00
2967;DHT22;1493;51.496;7.210;2023-04-29T13:25:55;18.50;1.00
2967;DHT22;1493;51.496;7.210;2023-04-29T13:28:22;18.20;1.00
2967;DHT22;1493;51.496;7.210;2023-04-29T13:30:49;17.60;1.00
2967;DHT22;1493;51.496;7.210;2023-04-29T13:33:16;17.20;1.00
2967;DHT22;1493;51.496;7.210;2023-04-29T13:35:45;17.00;1.00
2967;DHT22;1493;51.496;7.210;2023-04-29T13:38:12;16.80;1.00
2967;DHT22;1493;51.496;7.210;2023-04-29T13:40:38;16.60;1.00
2967;DHT22;1493;51.496;7.210;2023-04-29T13:43:05;16.70;93.20
2967;DHT22;1493;51.496;7.210;2023-04-29T13:45:32;16.70;99.90
2967;DHT22;1493;51.496;7.210;2023-04-29T13:48:00;16.80;99.90
2967;DHT22;1493;51.496;7.210;2023-04-29T13:50:26;16.80;1.00
2967;DHT22;1493;51.496;7.210;2023-04-29T13:52:55;16.80;1.00
2967;DHT22;1493;51.496;7.210;2023-04-29T13:55:22;16.80;1.00
2967;DHT22;1493;51.496;7.210;2023-04-29T13:57:49;16.70;1.00
2967;DHT22;1493;51.496;7.210;2023-04-29T14:00:16;16.80;1.00
2967;DHT22;1493;51.496;7.210;2023-04-29T14:02:43;17.00;1.00
2967;DHT22;1493;51.496;7.210;2023-04-29T14:05:10;17.10;1.00
2967;DHT22;1493;51.496;7.210;2023-04-29T14:07:37;17.30;1.00
2967;DHT22;1493;51.496;7.210;2023-04-29T14:10:06;17.70;1.00
2967;DHT22;1493;51.496;7.210;2023-04-29T14:12:32;18.00;1.00
2967;DHT22;1493;51.496;7.210;2023-04-29T14:14:59;18.00;1.00
2967;DHT22;1493;51.496;7.210;2023-04-29T14:17:26;18.00;1.00
2967;DHT22;1493;51.496;7.210;2023-04-29T14:19:53;18.10;1.00
2967;DHT22;1493;51.496;7.210;2023-04-29T14:22:20;18.20;1.00
2967;DHT22;1493;51.496;7.210;2023-04-29T14:24:46;18.40;1.00
2967;DHT22;1493;51.496;7.210;2023-04-29T14:27:15;18.40;1.00
2967;DHT22;1493;51.496;7.210;2023-04-29T14:29:41;18.50;1.00
2967;DHT22;1493;51.496;7.210;2023-04-29T14:32:08;18.50;1.00
2967;DHT22;1493;51.496;7.210;2023-04-29T14:34:35;18.40;1.00
2967;DHT22;1493;51.496;7.210;2023-04-29T14:37:02;17.90;1.00
2967;DHT22;1493;51.496;7.210;2023-04-29T14:39:29;17.50;1.00
2967;DHT22;1493;51.496;7.210;2023-04-29T14:41:56;17.40;1.00
2967;DHT22;1493;51.496;7.210;2023-04-29T14:44:24;17.40;1.00
2967;DHT22;1493;51.496;7.210;2023-04-29T14:46:51;17.30;1.00
2967;DHT22;1493;51.496;7.210;2023-04-29T14:49:18;17.50;1.00
2967;DHT22;1493;51.496;7.210;2023-04-29T14:51:44;17.70;1.00
2967;DHT22;1493;51.496;7.210;2023-04-29T14:54:11;17.90;1.00
2967;DHT22;1493;51.496;7.210;2023-04-29T14:56:38;17.90;1.00
2967;DHT22;1493;51.496;7.210;2023-04-29T14:59:05;18.20;1.00
2967;DHT22;1493;51.496;7.210;2023-04-29T15:01:34;18.00;1.00
2967;DHT22;1493;51.496;7.210;2023-04-29T15:04:01;18.30;1.00
2967;DHT22;1493;51.496;7.210;2023-04-29T15:06:29;18.60;1.00
2967;DHT22;1493;51.496;7.210;2023-04-29T15:08:56;18.90;1.00
2967;DHT22;1493;51.496;7.210;2023-04-29T15:11:23;19.70;1.00
2967;DHT22;1493;51.496;7.210;2023-04-29T15:13:50;20.20;1.00
2967;DHT22;1493;51.496;7.210;2023-04-29T15:16:17;20.60;1.00
2967;DHT22;1493;51.496;7.210;2023-04-29T15:18:45;21.00;1.00
2967;DHT22;1493;51.496;7.210;2023-04-29T15:21:12;21.10;1.00
2967;DHT22;1493;51.496;7.210;2023-04-29T15:23:39;21.20;1.00
2967;DHT22;1493;51.496;7.210;2023-04-29T15:26:06;21.30;1.00
2967;DHT22;1493;51.496;7.210;2023-04-29T15:28:33;21.60;1.00
2967;DHT22;1493;51.496;7.210;2023-04-29T15:31:00;21.40;99.90
2967;DHT22;1493;51.496;7.210;2023-04-29T15:33:29;22.70;1.00
2967;DHT22;1493;51.496;7.210;2023-04-29T15:35:57;24.40;1.00
2967;DHT22;1493;51.496;7.210;2023-04-29T15:38:24;24.10;99.90
2967;DHT22;1493;51.496;7.210;2023-04-29T15:40:51;24.70;99.90
2967;DHT22;1493;51.496;7.210;2023-04-29T15:43:23;24.60;99.90
2967;DHT22;1493;51.496;7.210;2023-04-29T15:45:50;23.70;99.90
2967;DHT22;1493;51.496;7.210;2023-04-29T15:48:17;22.80;99.90
2967;DHT22;1493;51.496;7.210;2023-04-29T15:50:43;21.90;99.90
2967;DHT22;1493;51.496;7.210;2023-04-29T15:53:12;20.60;99.90
2967;DHT22;1493;51.496;7.210;2023-04-29T15:55:38;20.20;99.90
2967;DHT22;1493;51.496;7.210;2023-04-29T15:58:05;19.90;99.90
2967;DHT22;1493;51.496;7.210;2023-04-29T16:00:36;19.30;99.90
2967;DHT22;1493;51.496;7.210;2023-04-29T16:03:05;19.00;99.90
2967;DHT22;1493;51.496;7.210;2023-04-29T16:05:33;18.30;99.90
2967;DHT22;1493;51.496;7.210;2023-04-29T16:08:03;18.00;99.90
2967;DHT22;1493;51.496;7.210;2023-04-29T16:10:31;17.80;99.90
2967;DHT22;1493;51.496;7.210;2023-04-29T16:12:58;17.40;99.90
2967;DHT22;1493;51.496;7.210;2023-04-29T16:15:26;17.30;1.00
2967;DHT22;1493;51.496;7.210;2023-04-29T16:17:54;17.10;1.00
2967;DHT22;1493;51.496;7.210;2023-04-29T16:20:20;17.00;1.00